createdAt,value
2022-11-26T00:02:26.487Z,97337.19
2022-11-26T00:04:55.441Z,97336.66
2022-11-26T00:07:27.801Z,97339.00
2022-11-26T00:09:56.669Z,97338.16
2022-11-26T00:12:34.551Z,97328.25
2022-11-26T00:15:28.229Z,97334.44
2022-11-26T00:17:56.002Z,97344.22
2022-11-26T00:20:30.520Z,97340.63
2022-11-26T00:23:01.415Z,97345.88
2022-11-26T00:25:40.253Z,97335.41
2022-11-26T00:28:32.172Z,97344.81
2022-11-26T00:31:13.262Z,97336.44
2022-11-26T00:33:40.133Z,97343.38
2022-11-26T00:36:19.915Z,97348.31
2022-11-26T00:38:52.072Z,97347.34
2022-11-26T00:41:24.908Z,97343.75
2022-11-26T00:43:51.820Z,97347.84
2022-11-26T00:46:21.910Z,97347.84
2022-11-26T00:48:48.958Z,97357.84
2022-11-26T00:51:27.152Z,97360.47
2022-11-26T00:53:56.437Z,97355.09
2022-11-26T00:56:23.457Z,97363.75
2022-11-26T00:58:51.138Z,97381.59
2022-11-26T01:01:25.787Z,97371.44
2022-11-26T01:03:53.235Z,97372.28
2022-11-26T01:06:27.620Z,97373.75
2022-11-26T01:08:54.481Z,97385.72
2022-11-26T01:11:23.737Z,97379.44
2022-11-26T01:13:53.483Z,97382.75
2022-11-26T01:16:30.319Z,97393.84
2022-11-26T01:19:02.264Z,97391.91
2022-11-26T01:21:31.398Z,97387.88
2022-11-26T01:23:58.257Z,97386.22
2022-11-26T01:26:28.981Z,97393.84
2022-11-26T01:28:56.186Z,97387.66
2022-11-26T01:31:27.748Z,97387.91
2022-11-26T01:33:55.081Z,97386.25
2022-11-26T01:36:36.449Z,97396.06
2022-11-26T01:39:10.837Z,97394.69
2022-11-26T01:42:07.327Z,97397.63
2022-11-26T01:44:36.855Z,97399.56
2022-11-26T01:47:30.402Z,97403.28
2022-11-26T01:50:28.624Z,97402.78
2022-11-26T01:53:22.052Z,97415.19
2022-11-26T01:55:53.898Z,97417.94
2022-11-26T01:58:28.287Z,97411.09
2022-11-26T02:00:55.496Z,97415.72
2022-11-26T02:03:23.859Z,97414.91
2022-11-26T02:06:05.776Z,97424.75
2022-11-26T02:08:34.464Z,97415.41
2022-11-26T02:11:18.755Z,97422.78
2022-11-26T02:13:48.749Z,97419.22
2022-11-26T02:16:48.063Z,97422.50
2022-11-26T02:19:53.181Z,97422.22
2022-11-26T02:22:50.149Z,97422.50
2022-11-26T02:26:00.629Z,97425.81
2022-11-26T02:29:05.597Z,97426.44
2022-11-26T02:31:56.336Z,97435.94
2022-11-26T02:34:54.258Z,97441.88
2022-11-26T02:37:35.188Z,97440.72
2022-11-26T02:40:02.025Z,97442.22
2022-11-26T02:42:33.575Z,97442.22
2022-11-26T02:45:10.882Z,97440.56
2022-11-26T02:47:41.491Z,97437.00
2022-11-26T02:50:29.911Z,97445.81
2022-11-26T02:52:58.852Z,97451.03
2022-11-26T02:55:30.983Z,97454.63
2022-11-26T02:57:58.337Z,97461.22
2022-11-26T03:00:25.445Z,97461.72
2022-11-26T03:03:08.713Z,97462.56
2022-11-26T03:05:39.170Z,97465.53
2022-11-26T03:08:07.568Z,97467.19
2022-11-26T03:10:34.741Z,97470.47
2022-11-26T03:13:01.599Z,97468.00
2022-11-26T03:15:28.728Z,97478.34
2022-11-26T03:17:55.562Z,97470.47
2022-11-26T03:20:22.374Z,97470.47
2022-11-26T03:22:49.464Z,97462.31
2022-11-26T03:25:16.499Z,97471.16
2022-11-26T03:27:43.418Z,97468.00
2022-11-26T03:30:10.703Z,97472.72
2022-11-26T03:32:37.651Z,97460.25
2022-11-26T03:35:05.413Z,97465.31
2022-11-26T03:37:32.288Z,97464.34
2022-11-26T03:39:59.369Z,97470.41
2022-11-26T03:42:26.494Z,97466.13
2022-11-26T03:44:53.564Z,97467.50
2022-11-26T03:47:20.925Z,97479.91
2022-11-26T03:49:47.747Z,97474.94
2022-11-26T03:52:14.670Z,97476.31
2022-11-26T03:54:41.510Z,97486.78
2022-11-26T03:57:08.376Z,97492.16
2022-11-26T03:59:35.193Z,97487.38
2022-11-26T04:02:02.671Z,97489.16
2022-11-26T04:04:29.803Z,97496.28
2022-11-26T04:06:56.755Z,97499.19
2022-11-26T04:09:24.124Z,97495.88
2022-11-26T04:11:51.029Z,97490.38
2022-11-26T04:14:19.591Z,97497.25
2022-11-26T04:16:46.677Z,97501.34
2022-11-26T04:19:13.608Z,97498.28
2022-11-26T04:21:40.606Z,97505.19
2022-11-26T04:24:08.174Z,97501.56
2022-11-26T04:26:35.063Z,97504.88
2022-11-26T04:29:02.096Z,97512.03
2022-11-26T04:31:28.920Z,97512.84
2022-11-26T04:33:55.801Z,97516.44
2022-11-26T04:36:23.558Z,97510.09
2022-11-26T04:38:50.374Z,97518.78
2022-11-26T04:41:17.276Z,97522.22
2022-11-26T04:43:44.163Z,97523.88
2022-11-26T04:46:11.033Z,97530.06
2022-11-26T04:48:37.940Z,97531.03
2022-11-26T04:51:04.853Z,97535.66
2022-11-26T04:53:31.683Z,97543.16
2022-11-26T04:55:58.536Z,97546.13
2022-11-26T04:58:25.324Z,97544.81
2022-11-26T05:00:52.453Z,97551.97
2022-11-26T05:03:19.861Z,97552.66
2022-11-26T05:05:47.219Z,97562.28
2022-11-26T05:08:14.348Z,97560.50
2022-11-26T05:10:41.644Z,97566.84
2022-11-26T05:13:08.850Z,97551.97
2022-11-26T05:15:35.642Z,97562.06
2022-11-26T05:18:02.489Z,97572.22
2022-11-26T05:20:29.360Z,97571.56
2022-11-26T05:22:56.133Z,97571.84
2022-11-26T05:25:22.967Z,97573.81
2022-11-26T05:27:49.740Z,97565.56
2022-11-26T05:30:16.649Z,97570.28
2022-11-26T05:32:43.431Z,97575.25
2022-11-26T05:35:10.470Z,97576.53
2022-11-26T05:37:37.442Z,97592.66
2022-11-26T05:40:05.843Z,97593.38
2022-11-26T05:42:32.685Z,97586.09
2022-11-26T05:44:59.505Z,97597.56
2022-11-26T05:47:26.452Z,97602.94
2022-11-26T05:49:53.477Z,97602.09
2022-11-26T05:52:20.913Z,97603.50
2022-11-26T05:54:47.847Z,97603.44
2022-11-26T05:57:14.897Z,97606.75
2022-11-26T05:59:41.877Z,97618.28
2022-11-26T06:02:08.780Z,97613.31
2022-11-26T06:04:35.725Z,97616.88
2022-11-26T06:07:02.627Z,97621.00
2022-11-26T06:09:29.415Z,97625.09
2022-11-26T06:11:56.181Z,97616.28
2022-11-26T06:14:23.056Z,97621.53
2022-11-26T06:16:49.975Z,97631.16
2022-11-26T06:19:16.889Z,97632.25
2022-11-26T06:21:43.768Z,97642.44
2022-11-26T06:24:11.100Z,97638.63
2022-11-26T06:26:37.996Z,97640.69
2022-11-26T06:29:04.859Z,97637.41
2022-11-26T06:31:32.678Z,97648.84
2022-11-26T06:33:59.815Z,97637.56
2022-11-26T06:36:26.733Z,97650.75
2022-11-26T06:38:53.551Z,97650.09
2022-11-26T06:41:20.343Z,97649.28
2022-11-26T06:43:47.123Z,97646.94
2022-11-26T06:46:14.156Z,97658.47
2022-11-26T06:48:41.253Z,97659.31
2022-11-26T06:51:11.993Z,97663.72
2022-11-26T06:53:38.834Z,97668.34
2022-11-26T06:56:17.762Z,97676.59
2022-11-26T06:58:46.915Z,97676.00
2022-11-26T07:01:22.384Z,97676.25
2022-11-26T07:03:49.493Z,97687.56
2022-11-26T07:06:19.850Z,97692.78
2022-11-26T07:08:47.892Z,97684.66
2022-11-26T07:11:15.736Z,97689.91
2022-11-26T07:13:42.931Z,97700.25
2022-11-26T07:16:10.409Z,97703.25
2022-11-26T07:18:37.449Z,97706.25
2022-11-26T07:21:10.244Z,97710.06
2022-11-26T07:23:37.098Z,97718.09
2022-11-26T07:26:06.261Z,97713.38
2022-11-26T07:28:34.547Z,97711.69
2022-11-26T07:31:04.242Z,97709.47
2022-11-26T07:33:31.218Z,97709.47
2022-11-26T07:36:04.041Z,97718.59
2022-11-26T07:38:31.564Z,97712.53
2022-11-26T07:41:09.415Z,97720.41
2022-11-26T07:43:39.084Z,97714.81
2022-11-26T07:46:08.694Z,97731.09
2022-11-26T07:48:36.561Z,97721.38
2022-11-26T07:51:03.700Z,97726.72
2022-11-26T07:53:36.364Z,97722.53
2022-11-26T07:56:06.839Z,97722.84
2022-11-26T07:58:33.746Z,97727.91
2022-11-26T08:01:29.845Z,97722.66
2022-11-26T08:03:58.519Z,97730.94
2022-11-26T08:06:29.249Z,97735.38
2022-11-26T08:08:56.244Z,97725.41
2022-11-26T08:11:27.682Z,97731.03
2022-11-26T08:13:58.493Z,97739.81
2022-11-26T08:16:28.464Z,97735.38
2022-11-26T08:18:58.360Z,97736.44
2022-11-26T08:21:25.616Z,97735.00
2022-11-26T08:23:54.008Z,97739.63
2022-11-26T08:26:27.510Z,97736.66
2022-11-26T08:28:59.508Z,97739.50
2022-11-26T08:31:27.886Z,97738.59
2022-11-26T08:33:59.839Z,97736.63
2022-11-26T08:36:29.533Z,97741.84
2022-11-26T08:38:57.046Z,97755.66
2022-11-26T08:41:23.915Z,97753.03
2022-11-26T08:44:06.200Z,97754.06
2022-11-26T08:46:35.383Z,97750.31
2022-11-26T08:49:02.391Z,97754.69
2022-11-26T08:51:29.316Z,97760.03
2022-11-26T08:53:56.200Z,97762.19
2022-11-26T08:56:23.165Z,97759.22
2022-11-26T08:58:51.373Z,97762.19
2022-11-26T09:01:21.836Z,97768.28
2022-11-26T09:03:54.473Z,97772.00
2022-11-26T09:06:23.938Z,97778.41
2022-11-26T09:09:09.813Z,97780.41
2022-11-26T09:12:04.556Z,97793.03
2022-11-26T09:14:38.372Z,97783.84
2022-11-26T09:17:06.225Z,97797.13
2022-11-26T09:19:33.625Z,97787.97
2022-11-26T09:22:01.384Z,97794.53
2022-11-26T09:24:28.455Z,97792.00
2022-11-26T09:26:55.318Z,97799.44
2022-11-26T09:29:23.579Z,97803.44
2022-11-26T09:34:39.241Z,97802.66
2022-11-26T09:37:06.599Z,97804.50
2022-11-26T09:39:33.540Z,97816.22
2022-11-26T09:42:08.232Z,97812.88
2022-11-26T09:45:11.722Z,97814.91
2022-11-26T09:47:45.595Z,97822.69
2022-11-26T09:50:15.495Z,97819.28
2022-11-26T09:52:59.678Z,97808.34
2022-11-26T09:55:40.469Z,97815.94
2022-11-26T09:58:26.927Z,97811.88
2022-11-26T10:00:57.549Z,97812.69
2022-11-26T10:03:37.023Z,97810.53
2022-11-26T10:06:46.242Z,97815.41
2022-11-26T10:09:30.931Z,97826.44
2022-11-26T10:12:26.118Z,97815.50
2022-11-26T10:15:17.353Z,97809.69
2022-11-26T10:17:53.281Z,97802.69
2022-11-26T10:20:37.843Z,97797.59
2022-11-26T10:23:11.506Z,97795.34
2022-11-26T10:25:58.471Z,97803.91
2022-11-26T10:28:45.675Z,97797.41
2022-11-26T10:31:33.920Z,97802.25
2022-11-26T10:34:12.507Z,97796.91
2022-11-26T10:36:41.827Z,97812.22
2022-11-26T10:39:16.035Z,97802.59
2022-11-26T10:41:43.561Z,97804.63
2022-11-26T10:44:29.994Z,97805.16
2022-11-26T10:46:58.211Z,97808.16
2022-11-26T10:49:30.870Z,97803.72
2022-11-26T10:52:04.191Z,97801.25
2022-11-26T10:54:37.724Z,97798.63
2022-11-26T10:57:19.044Z,97796.75
2022-11-26T10:59:52.261Z,97801.91
2022-11-26T11:02:39.065Z,97797.22
2022-11-26T11:05:09.023Z,97798.34
2022-11-26T11:07:38.576Z,97796.47
2022-11-26T11:10:11.861Z,97788.31
2022-11-26T11:12:45.387Z,97788.16
2022-11-26T11:15:18.118Z,97783.16
2022-11-26T11:17:47.474Z,97786.63
2022-11-26T11:20:17.420Z,97778.25
2022-11-26T11:22:45.690Z,97769.78
2022-11-26T11:25:25.858Z,97774.09
2022-11-26T11:27:55.407Z,97767.03
2022-11-26T11:30:34.017Z,97764.91
2022-11-26T11:33:22.611Z,97774.75
2022-11-26T11:36:01.345Z,97769.66
2022-11-26T11:38:46.511Z,97770.19
2022-11-26T11:41:37.423Z,97770.16
2022-11-26T11:44:19.537Z,97767.53
2022-11-26T11:47:26.774Z,97767.06
2022-11-26T11:50:18.744Z,97774.09
2022-11-26T11:53:17.838Z,97775.06
2022-11-26T11:56:08.880Z,97774.28
2022-11-26T11:59:00.176Z,97778.03
2022-11-26T12:02:05.452Z,97777.91
2022-11-26T12:05:02.332Z,97782.19
2022-11-26T12:07:41.154Z,97778.59
2022-11-26T12:10:35.353Z,97774.31
2022-11-26T12:13:06.136Z,97772.69
2022-11-26T12:15:46.420Z,97768.09
2022-11-26T12:18:39.974Z,97772.56
2022-11-26T12:21:14.110Z,97780.94
2022-11-26T12:24:04.937Z,97786.75
2022-11-26T12:26:39.977Z,97781.56
2022-11-26T12:29:29.616Z,97781.13
2022-11-26T12:32:16.364Z,97792.81
2022-11-26T12:34:49.436Z,97787.66
2022-11-26T12:37:32.585Z,97790.13
2022-11-26T12:40:37.985Z,97790.38
2022-11-26T12:43:30.070Z,97798.47
2022-11-26T12:46:16.954Z,97786.63
2022-11-26T12:49:06.623Z,97792.44
2022-11-26T12:52:18.528Z,97799.91
2022-11-26T12:55:22.296Z,97794.63
2022-11-26T12:57:57.305Z,97781.75
2022-11-26T13:00:35.709Z,97790.94
2022-11-26T13:03:06.236Z,97788.53
2022-11-26T13:05:56.164Z,97786.06
2022-11-26T13:08:34.703Z,97791.69
2022-11-26T13:11:14.327Z,97790.38
2022-11-26T13:13:58.369Z,97795.50
2022-11-26T13:16:46.914Z,97792.16
2022-11-26T13:19:37.289Z,97792.53
2022-11-26T13:22:13.023Z,97794.69
2022-11-26T13:25:16.507Z,97788.78
2022-11-26T13:27:55.206Z,97794.03
2022-11-26T13:30:35.073Z,97788.53
2022-11-26T13:33:41.073Z,97792.19
2022-11-26T13:36:23.965Z,97793.66
2022-11-26T13:39:11.758Z,97799.22
2022-11-26T13:42:04.016Z,97790.53
2022-11-26T13:45:01.020Z,97785.09
2022-11-26T13:47:35.713Z,97781.50
2022-11-26T13:50:30.911Z,97780.72
2022-11-26T13:53:05.359Z,97781.03
2022-11-26T13:55:48.587Z,97783.81
2022-11-26T13:58:25.536Z,97775.50
2022-11-26T14:00:52.464Z,97772.41
2022-11-26T14:03:55.372Z,97784.06
2022-11-26T14:06:22.951Z,97773.59
2022-11-26T14:08:52.758Z,97771.41
2022-11-26T14:11:45.577Z,97777.41
2022-11-26T14:14:24.545Z,97774.22
2022-11-26T14:17:08.892Z,97770.31
2022-11-26T14:19:41.084Z,97774.47
2022-11-26T14:22:31.874Z,97758.69
2022-11-26T14:25:08.087Z,97766.16
2022-11-26T14:27:49.799Z,97762.91
2022-11-26T14:30:27.485Z,97774.13
2022-11-26T14:33:04.578Z,97768.94
2022-11-26T14:35:35.710Z,97766.25
2022-11-26T14:38:05.934Z,97762.31
2022-11-26T14:40:36.955Z,97759.25
2022-11-26T14:43:20.048Z,97764.66
2022-11-26T14:46:14.168Z,97763.84
2022-11-26T14:48:47.265Z,97767.22
2022-11-26T14:51:23.296Z,97770.16
2022-11-26T14:53:51.253Z,97768.19
2022-11-26T14:56:19.954Z,97768.97
2022-11-26T14:58:54.164Z,97767.56
2022-11-26T15:01:27.279Z,97771.75
2022-11-26T15:04:04.982Z,97770.84
2022-11-26T15:06:42.720Z,97777.63
2022-11-26T15:09:21.650Z,97773.16
2022-11-26T15:12:14.902Z,97790.28
2022-11-26T15:14:47.595Z,97781.34
2022-11-26T15:17:17.880Z,97794.31
2022-11-26T15:19:45.696Z,97792.13
2022-11-26T15:22:32.589Z,97799.72
2022-11-26T15:24:59.503Z,97798.00
2022-11-26T15:27:36.263Z,97799.97
2022-11-26T15:30:17.226Z,97806.81
2022-11-26T15:32:44.085Z,97806.69
2022-11-26T15:35:15.243Z,97809.22
2022-11-26T15:37:42.271Z,97806.50
2022-11-26T15:40:24.166Z,97810.38
2022-11-26T15:43:00.978Z,97805.72
2022-11-26T15:45:41.858Z,97809.47
2022-11-26T15:48:29.820Z,97807.72
2022-11-26T15:51:15.737Z,97808.53
2022-11-26T15:53:47.985Z,97812.94
2022-11-26T15:56:24.322Z,97809.34
2022-11-26T15:59:05.778Z,97815.94
2022-11-26T16:01:35.585Z,97812.91
2022-11-26T16:04:06.454Z,97814.25
2022-11-26T16:06:40.291Z,97817.22
2022-11-26T16:09:13.548Z,97816.09
2022-11-26T16:11:58.606Z,97819.09
2022-11-26T16:14:35.190Z,97823.72
2022-11-26T16:17:10.890Z,97817.94
2022-11-26T16:19:54.689Z,97811.34
2022-11-26T16:22:28.338Z,97806.13
2022-11-26T16:25:16.243Z,97811.84
2022-11-26T16:27:49.152Z,97803.84
2022-11-26T16:30:17.892Z,97798.09
2022-11-26T16:32:44.714Z,97807.53
2022-11-26T16:35:37.554Z,97798.34
2022-11-26T16:37:58.878Z,97803.13
2022-11-26T16:40:26.662Z,97808.16
2022-11-26T16:42:53.639Z,97807.72
2022-11-26T16:45:20.553Z,97808.31
2022-11-26T16:47:51.904Z,97803.47
2022-11-26T16:50:25.162Z,97805.25
2022-11-26T16:52:54.148Z,97804.91
2022-11-26T16:55:25.425Z,97810.22
2022-11-26T16:57:57.012Z,97808.56
2022-11-26T17:00:26.161Z,97811.59
2022-11-26T17:02:54.154Z,97811.66
2022-11-26T17:05:22.570Z,97806.25
2022-11-26T17:07:55.570Z,97805.69
2022-11-26T17:10:29.133Z,97813.97
2022-11-26T17:12:57.020Z,97820.00
2022-11-26T17:15:24.247Z,97819.34
2022-11-26T17:17:54.613Z,97822.66
2022-11-26T17:20:27.237Z,97818.84
2022-11-26T17:22:54.703Z,97810.31
2022-11-26T17:25:21.596Z,97806.53
2022-11-26T17:27:48.705Z,97810.59
2022-11-26T17:30:23.884Z,97807.53
2022-11-26T17:32:51.641Z,97806.13
2022-11-26T17:35:18.824Z,97810.66
2022-11-26T17:37:46.005Z,97807.22
2022-11-26T17:40:23.686Z,97805.72
2022-11-26T17:42:51.174Z,97801.25
2022-11-26T17:45:19.270Z,97803.91
2022-11-26T17:47:46.380Z,97800.81
2022-11-26T17:50:26.013Z,97797.50
2022-11-26T17:52:54.491Z,97802.50
2022-11-26T17:55:24.193Z,97811.97
2022-11-26T17:57:51.510Z,97814.16
2022-11-26T18:00:22.877Z,97814.97
2022-11-26T18:02:49.871Z,97811.53
2022-11-26T18:05:16.893Z,97815.81
2022-11-26T18:07:43.763Z,97815.09
2022-11-26T18:10:14.395Z,97813.44
2022-11-26T18:12:42.188Z,97817.81
2022-11-26T18:15:09.394Z,97824.78
2022-11-26T18:17:36.285Z,97817.91
2022-11-26T18:20:03.285Z,97818.78
2022-11-26T18:22:30.321Z,97828.25
2022-11-26T18:24:58.405Z,97828.75
2022-11-26T18:27:29.157Z,97844.09
2022-11-26T18:29:56.152Z,97843.38
2022-11-26T18:32:23.547Z,97843.97
2022-11-26T18:34:50.931Z,97855.34
2022-11-26T18:37:18.660Z,97851.19
2022-11-26T18:39:45.731Z,97855.09
2022-11-26T18:45:00.952Z,97850.59
2022-11-26T18:47:27.826Z,97848.56
2022-11-26T18:49:54.700Z,97850.59
2022-11-26T18:52:21.487Z,97848.69
2022-11-26T18:54:48.302Z,97851.28
2022-11-26T18:57:15.290Z,97841.38
2022-11-26T18:59:42.575Z,97833.34
2022-11-26T19:02:11.100Z,97848.00
2022-11-26T19:04:39.204Z,97840.19
2022-11-26T19:07:06.089Z,97848.94
2022-11-26T19:09:33.081Z,97843.84
2022-11-26T19:12:00.375Z,97845.63
2022-11-26T19:14:27.257Z,97843.28
2022-11-26T19:16:54.233Z,97845.63
2022-11-26T19:19:21.398Z,97846.47
2022-11-26T19:21:49.746Z,97843.97
2022-11-26T19:24:16.937Z,97857.53
2022-11-26T19:26:44.290Z,97857.44
2022-11-26T19:29:12.898Z,97857.88
2022-11-26T19:31:40.175Z,97863.09
2022-11-26T19:34:14.750Z,97855.13
2022-11-26T19:36:41.579Z,97854.06
2022-11-26T19:39:08.932Z,97853.34
2022-11-26T19:41:35.799Z,97858.09
2022-11-26T19:44:04.018Z,97854.81
2022-11-26T19:46:31.437Z,97841.47
2022-11-26T19:48:58.407Z,97842.78
2022-11-26T19:51:27.765Z,97840.44
2022-11-26T19:53:56.350Z,97831.06
2022-11-26T19:56:31.495Z,97834.03
2022-11-26T19:59:01.963Z,97827.91
2022-11-26T20:01:34.411Z,97821.28
2022-11-26T20:04:05.176Z,97822.81
2022-11-26T20:06:35.038Z,97821.50
2022-11-26T20:09:04.299Z,97816.66
2022-11-26T20:11:31.270Z,97817.38
2022-11-26T20:13:58.733Z,97820.56
2022-11-26T20:16:29.841Z,97812.06
2022-11-26T20:18:58.360Z,97822.34
2022-11-26T20:21:30.831Z,97814.88
2022-11-26T20:24:01.391Z,97815.47
2022-11-26T20:26:38.663Z,97820.31
2022-11-26T20:29:14.808Z,97820.78
2022-11-26T20:31:48.875Z,97814.63
2022-11-26T20:34:18.767Z,97803.28
2022-11-26T20:36:45.838Z,97804.91
2022-11-26T20:39:19.749Z,97809.41
2022-11-26T20:41:47.143Z,97809.84
2022-11-26T20:44:14.366Z,97808.19
2022-11-26T20:46:41.992Z,97801.59
2022-11-26T20:49:11.307Z,97786.47
2022-11-26T20:51:39.092Z,97795.44
2022-11-26T20:54:05.946Z,97794.50
2022-11-26T20:56:33.241Z,97796.38
2022-11-26T20:59:02.124Z,97790.44
2022-11-26T21:01:29.902Z,97779.94
2022-11-26T21:03:57.426Z,97786.91
2022-11-26T21:06:30.190Z,97787.22
2022-11-26T21:09:01.158Z,97793.31
2022-11-26T21:11:29.254Z,97800.03
2022-11-26T21:13:58.817Z,97792.69
2022-11-26T21:16:25.869Z,97791.22
2022-11-26T21:18:54.521Z,97789.56
2022-11-26T21:21:23.667Z,97790.53
2022-11-26T21:23:51.049Z,97786.81
2022-11-26T21:26:25.077Z,97789.19
2022-11-26T21:28:57.218Z,97794.50
2022-11-26T21:31:25.968Z,97781.41
2022-11-26T21:34:02.501Z,97776.22
2022-11-26T21:36:32.036Z,97779.69
2022-11-26T21:39:00.092Z,97776.97
2022-11-26T21:41:27.584Z,97780.91
2022-11-26T21:43:55.392Z,97774.91
2022-11-26T21:46:26.286Z,97771.34
2022-11-26T21:48:54.433Z,97775.72
2022-11-26T21:51:23.425Z,97776.16
2022-11-26T21:53:50.589Z,97775.41
2022-11-26T21:56:20.569Z,97778.22
2022-11-26T21:58:48.151Z,97778.66
2022-11-26T22:01:34.362Z,97781.50
2022-11-26T22:04:05.103Z,97778.72
2022-11-26T22:06:32.101Z,97777.38
2022-11-26T22:08:59.275Z,97785.91
2022-11-26T22:11:29.585Z,97776.56
2022-11-26T22:13:56.816Z,97779.97
2022-11-26T22:16:26.073Z,97782.13
2022-11-26T22:18:54.154Z,97780.53
2022-11-26T22:21:29.200Z,97779.38
2022-11-26T22:23:57.207Z,97784.00
2022-11-26T22:26:25.281Z,97781.69
2022-11-26T22:28:52.542Z,97781.84
2022-11-26T22:31:22.060Z,97779.63
2022-11-26T22:33:49.999Z,97786.88
2022-11-26T22:36:16.830Z,97789.69
2022-11-26T22:38:43.702Z,97785.97
2022-11-26T22:41:13.522Z,97786.16
2022-11-26T22:43:41.457Z,97784.06
2022-11-26T22:46:13.547Z,97789.75
2022-11-26T22:48:41.490Z,97790.44
2022-11-26T22:51:09.219Z,97803.31
2022-11-26T22:53:36.813Z,97801.19
2022-11-26T22:56:05.386Z,97803.41
2022-11-26T22:58:34.377Z,97796.34
2022-11-26T23:01:09.053Z,97800.09
2022-11-26T23:03:38.086Z,97790.97
2022-11-26T23:06:10.742Z,97791.78
2022-11-26T23:08:39.191Z,97784.44
2022-11-26T23:11:16.256Z,97787.34
2022-11-26T23:13:45.655Z,97780.16
2022-11-26T23:16:13.032Z,97774.19
2022-11-26T23:18:40.355Z,97782.72
2022-11-26T23:21:14.598Z,97775.28
2022-11-26T23:23:42.409Z,97775.19
2022-11-26T23:26:18.464Z,97768.44
2022-11-26T23:28:47.339Z,97748.50
2022-11-26T23:31:21.265Z,97748.13
2022-11-26T23:33:49.483Z,97744.41
2022-11-26T23:36:20.434Z,97750.38
2022-11-26T23:38:47.780Z,97747.28
2022-11-26T23:41:15.021Z,97753.53
2022-11-26T23:43:42.265Z,97747.97
2022-11-26T23:46:33.039Z,97746.06
2022-11-26T23:48:59.879Z,97751.88
2022-11-26T23:51:30.207Z,97739.84
2022-11-26T23:53:57.099Z,97738.19
2022-11-26T23:56:30.048Z,97750.81
2022-11-26T23:59:01.510Z,97753.31
